Time;durP1;ratioP1;P1;durP2;ratioP2;P2;SDS_P1;SDS_P2;PMS_P1;PMS_P2;Temp;Humidity;BMP_temperature;BMP_pressure;BME280_temperature;BME280_humidity;BME280_pressure;Samples;Min_cycle;Max_cycle;Signal;HPM_P1;HPM_P2
2022/11/19 00:00:46;;;;;;;26.08;13.55;;;;;;;5.22;100.00;100664.84;5011133;28;20037;-73
2022/11/19 00:03:16;;;;;;;28.33;13.93;;;;;;;5.20;100.00;100671.28;5045230;28;20550;-71
2022/11/19 00:05:42;;;;;;;31.38;14.10;;;;;;;5.18;100.00;100674.06;5046895;28;20518;-71
2022/11/19 00:08:09;;;;;;;27.33;12.95;;;;;;;5.18;100.00;100676.75;5041915;28;20120;-72
2022/11/19 00:10:36;;;;;;;32.95;13.63;;;;;;;5.18;100.00;100682.16;5027958;28;20045;-71
2022/11/19 00:13:02;;;;;;;30.23;15.75;;;;;;;5.08;100.00;100675.47;5027161;28;20049;-71
2022/11/19 00:15:28;;;;;;;31.67;14.93;;;;;;;5.08;100.00;100686.25;5035179;28;20037;-71
2022/11/19 00:17:55;;;;;;;34.47;14.93;;;;;;;5.05;100.00;100681.03;5030021;28;20060;-72
2022/11/19 00:20:21;;;;;;;24.83;12.73;;;;;;;5.01;100.00;100690.25;5027014;28;20068;-71
2022/11/19 00:22:50;;;;;;;33.30;14.88;;;;;;;4.93;100.00;100684.38;5027459;28;20158;-72
2022/11/19 00:25:16;;;;;;;28.85;14.90;;;;;;;4.86;100.00;100690.09;5025321;28;20084;-72
2022/11/19 00:27:41;;;;;;;33.33;14.73;;;;;;;4.79;100.00;100690.47;5027974;28;20029;-71
2022/11/19 00:30:07;;;;;;;30.38;14.75;;;;;;;4.71;100.00;100682.78;5027602;28;20056;-71
2022/11/19 00:32:32;;;;;;;27.52;14.50;;;;;;;4.66;100.00;100684.81;5027395;28;20057;-71
2022/11/19 00:34:57;;;;;;;29.77;14.32;;;;;;;4.67;100.00;100691.09;5027371;28;20045;-73
2022/11/19 00:37:23;;;;;;;29.23;14.02;;;;;;;4.60;100.00;100696.78;5024628;28;20116;-71
2022/11/19 00:39:48;;;;;;;28.88;14.25;;;;;;;4.59;100.00;100702.25;5032477;28;20064;-72
2022/11/19 00:42:14;;;;;;;28.35;13.85;;;;;;;4.61;100.00;100697.66;5046121;28;20055;-71
2022/11/19 00:44:39;;;;;;;32.65;15.15;;;;;;;4.60;100.00;100710.25;5035036;28;20044;-71
2022/11/19 00:47:04;;;;;;;42.03;17.08;;;;;;;4.61;100.00;100705.72;5027175;28;20092;-71
2022/11/19 00:49:30;;;;;;;33.72;14.98;;;;;;;4.61;100.00;100713.81;5027462;28;20120;-71
2022/11/19 00:51:55;;;;;;;28.48;14.73;;;;;;;4.61;100.00;100714.69;5025555;28;20025;-72
2022/11/19 00:54:20;;;;;;;27.02;14.43;;;;;;;4.63;100.00;100708.38;5036966;28;20048;-71
2022/11/19 00:56:46;;;;;;;26.15;15.27;;;;;;;4.61;100.00;100705.72;5031464;28;20095;-71
2022/11/19 00:59:11;;;;;;;34.72;16.13;;;;;;;4.54;100.00;100707.00;5010821;28;20064;-72
2022/11/19 01:01:36;;;;;;;30.02;14.90;;;;;;;4.53;100.00;100710.66;5025877;28;20033;-72
2022/11/19 01:04:02;;;;;;;34.65;16.75;;;;;;;4.51;100.00;100707.16;5027472;28;20208;-72
2022/11/19 01:06:27;;;;;;;39.22;16.00;;;;;;;4.50;100.00;100717.06;5025350;28;20172;-71
2022/11/19 01:08:53;;;;;;;36.83;16.35;;;;;;;4.51;100.00;100716.09;5027633;28;20045;-72
2022/11/19 01:11:22;;;;;;;31.48;16.52;;;;;;;4.48;100.00;100708.19;5027660;28;20049;-72
2022/11/19 01:13:48;;;;;;;34.08;16.90;;;;;;;4.45;100.00;100719.09;5027649;28;20037;-72
2022/11/19 01:16:16;;;;;;;33.17;16.17;;;;;;;4.39;100.00;100723.94;5024418;28;20041;-74
2022/11/19 01:18:44;;;;;;;36.83;16.88;;;;;;;4.40;100.00;100729.22;5026349;28;20095;-71
2022/11/19 01:21:11;;;;;;;34.55;14.77;;;;;;;4.40;100.00;100733.75;5027254;28;20042;-72
2022/11/19 01:23:38;;;;;;;33.08;14.77;;;;;;;4.36;100.00;100738.41;5026260;28;20025;-72
2022/11/19 01:26:04;;;;;;;34.67;16.83;;;;;;;4.30;100.00;100734.19;5025645;28;20504;-72
2022/11/19 01:28:29;;;;;;;30.83;15.77;;;;;;;4.25;100.00;100735.38;5025232;28;20071;-73
2022/11/19 01:30:55;;;;;;;33.80;15.70;;;;;;;4.16;100.00;100744.75;5040179;28;20094;-73
2022/11/19 01:33:21;;;;;;;35.78;15.38;;;;;;;4.11;100.00;100748.63;5027829;28;20041;-71
2022/11/19 01:36:00;;;;;;;31.85;16.50;;;;;;;4.13;100.00;100746.72;5027762;28;20044;-72
2022/11/19 01:38:27;;;;;;;36.92;16.15;;;;;;;4.11;100.00;100752.19;5038003;28;20088;-72
2022/11/19 01:40:53;;;;;;;34.22;15.70;;;;;;;4.06;100.00;100749.69;5027136;28;20091;-73
2022/11/19 01:43:18;;;;;;;31.63;15.05;;;;;;;4.11;100.00;100762.06;5035793;28;20045;-72
2022/11/19 01:45:47;;;;;;;32.67;14.90;;;;;;;4.06;100.00;100765.84;5034334;28;20501;-72
2022/11/19 01:48:14;;;;;;;29.83;14.40;;;;;;;4.05;100.00;100760.53;5030998;28;20622;-72
2022/11/19 01:50:51;;;;;;;30.52;15.63;;;;;;;4.06;100.00;100763.16;5029761;28;20025;-72
2022/11/19 01:53:18;;;;;;;32.38;15.25;;;;;;;4.06;100.00;100756.91;5028814;28;20120;-73
2022/11/19 01:55:46;;;;;;;28.60;13.52;;;;;;;4.06;100.00;100752.41;5029401;28;20041;-72
2022/11/19 01:58:16;;;;;;;30.10;13.35;;;;;;;4.04;100.00;100767.72;5029073;28;20044;-73
2022/11/19 02:00:41;;;;;;;30.45;14.27;;;;;;;4.00;100.00;100774.19;5030453;28;20037;-72
2022/11/19 02:03:08;;;;;;;29.83;13.27;;;;;;;4.01;100.00;100769.69;5030315;28;20405;-73
2022/11/19 02:05:34;;;;;;;28.83;14.43;;;;;;;3.97;100.00;100777.03;5029210;28;20034;-72
2022/11/19 02:08:06;;;;;;;24.20;12.40;;;;;;;3.92;100.00;100773.69;5030522;28;20476;-72
2022/11/19 02:10:55;;;;;;;24.58;12.85;;;;;;;3.92;100.00;100772.81;5050523;28;20029;-73
2022/11/19 02:13:49;;;;;;;26.50;11.18;;;;;;;3.89;100.00;100770.28;5037032;28;20038;-73
2022/11/19 02:16:23;;;;;;;24.48;12.55;;;;;;;3.84;100.00;100770.47;5031934;28;20049;-72
2022/11/19 02:18:55;;;;;;;29.38;12.82;;;;;;;3.81;100.00;100773.28;5031113;28;20061;-74
2022/11/19 02:21:36;;;;;;;22.17;12.20;;;;;;;3.80;100.00;100782.31;5030676;28;20816;-73
2022/11/19 02:24:31;;;;;;;25.95;12.93;;;;;;;3.80;100.00;100777.81;5028805;28;20037;-72
2022/11/19 02:27:18;;;;;;;23.88;11.95;;;;;;;3.79;100.00;100784.13;5024619;28;20535;-72
2022/11/19 02:30:06;;;;;;;22.67;11.85;;;;;;;3.81;100.00;100786.75;5030366;28;20595;-73
2022/11/19 02:32:46;;;;;;;22.85;12.05;;;;;;;3.77;100.00;100780.63;5041911;28;20033;-72
2022/11/19 02:35:20;;;;;;;20.80;11.95;;;;;;;3.75;100.00;100789.72;5050222;28;20480;-72
2022/11/19 02:37:57;;;;;;;23.63;11.65;;;;;;;3.66;100.00;100784.75;5047993;28;20127;-73
2022/11/19 02:40:34;;;;;;;23.02;12.82;;;;;;;3.63;100.00;100779.50;5030136;28;20084;-74
2022/11/19 02:43:06;;;;;;;25.83;12.05;;;;;;;3.61;100.00;100782.28;5029619;28;20121;-72
2022/11/19 02:45:41;;;;;;;26.75;13.40;;;;;;;3.59;100.00;100784.19;5029780;28;20038;-74
2022/11/19 02:48:16;;;;;;;25.77;12.05;;;;;;;3.55;100.00;100786.13;5029888;28;20037;-73
2022/11/19 02:50:49;;;;;;;21.55;12.55;;;;;;;3.54;100.00;100802.31;5029117;28;20504;-72
2022/11/19 02:53:14;;;;;;;23.00;13.25;;;;;;;3.54;100.00;100796.94;5029700;28;20059;-72
2022/11/19 02:55:40;;;;;;;24.63;11.88;;;;;;;3.52;100.00;100797.00;5049245;28;20500;-73
2022/11/19 03:07:09;;;;;;;18.73;10.27;;;;;;;3.28;100.00;100806.16;5027489;28;20643;-72
2022/11/19 03:09:39;;;;;;;19.73;11.45;;;;;;;3.21;100.00;100816.28;5043284;28;20037;-72
2022/11/19 03:12:29;;;;;;;20.67;10.90;;;;;;;3.15;100.00;100818.34;5049418;28;20048;-72
2022/11/19 03:18:22;;;;;;;21.75;11.73;;;;;;;3.05;100.00;100816.06;5027929;28;20448;-73
2022/11/19 03:21:08;;;;;;;19.98;11.77;;;;;;;3.05;100.00;100817.88;5028208;28;20045;-73
2022/11/19 03:24:20;;;;;;;21.15;11.73;;;;;;;3.01;100.00;100822.50;5036054;28;20122;-73
2022/11/19 03:27:07;;;;;;;22.95;13.00;;;;;;;2.97;100.00;100820.88;5026511;28;20494;-72
2022/11/19 03:29:37;;;;;;;25.45;12.57;;;;;;;2.93;100.00;100821.06;5007923;28;20457;-73
2022/11/19 03:32:20;;;;;;;22.75;13.50;;;;;;;2.90;100.00;100822.06;5021629;28;20103;-73
2022/11/19 03:34:49;;;;;;;26.90;13.43;;;;;;;2.85;100.00;100821.41;5029000;28;20128;-72
2022/11/19 03:37:18;;;;;;;21.90;11.68;;;;;;;2.83;100.00;100809.81;5028616;28;20033;-72
2022/11/19 03:39:46;;;;;;;27.38;13.65;;;;;;;2.86;100.00;100817.75;5043753;28;20444;-72
2022/11/19 03:42:13;;;;;;;25.50;13.52;;;;;;;2.84;100.00;100819.63;5030628;28;20546;-74
2022/11/19 03:44:40;;;;;;;27.40;14.15;;;;;;;2.81;100.00;100817.06;5027754;28;20112;-72
2022/11/19 03:47:13;;;;;;;29.08;14.43;;;;;;;2.76;100.00;100822.63;5028659;28;20029;-72
2022/11/19 03:49:43;;;;;;;26.73;12.98;;;;;;;2.73;100.00;100821.88;5027332;28;20559;-74
2022/11/19 03:52:12;;;;;;;32.13;14.07;;;;;;;2.74;100.00;100820.94;5048063;28;20041;-73
2022/11/19 03:54:39;;;;;;;29.00;13.85;;;;;;;2.70;100.00;100822.00;5031273;28;20033;-71
2022/11/19 03:57:06;;;;;;;27.98;14.18;;;;;;;2.65;100.00;100827.56;5028757;28;20091;-72
2022/11/19 03:59:33;;;;;;;29.08;14.95;;;;;;;2.64;100.00;100827.63;5027074;28;20049;-72
2022/11/19 04:02:02;;;;;;;27.58;13.85;;;;;;;2.67;100.00;100827.50;5026771;28;20029;-74
2022/11/19 04:04:36;;;;;;;32.17;14.07;;;;;;;2.67;100.00;100835.56;5027416;28;20128;-72
2022/11/19 04:07:13;;;;;;;28.33;13.48;;;;;;;2.66;100.00;100831.09;5026026;28;20493;-72
2022/11/19 04:09:39;;;;;;;27.88;13.02;;;;;;;2.68;100.00;100837.31;5028322;28;20465;-72
2022/11/19 04:12:06;;;;;;;31.13;14.80;;;;;;;2.67;100.00;100843.63;5028407;28;20517;-72
2022/11/19 04:14:32;;;;;;;29.83;13.80;;;;;;;2.69;100.00;100842.63;5026542;28;20485;-72
2022/11/19 04:16:58;;;;;;;28.85;13.90;;;;;;;2.70;100.00;100844.34;5040706;28;20060;-72
2022/11/19 04:19:23;;;;;;;29.98;14.40;;;;;;;2.69;100.00;100845.28;5028025;28;20033;-73
2022/11/19 04:21:50;;;;;;;25.48;13.20;;;;;;;2.68;100.00;100851.63;5028259;28;20041;-72
2022/11/19 04:24:15;;;;;;;32.33;14.02;;;;;;;2.63;99.68;100856.28;5026992;28;20069;-72
2022/11/19 04:26:41;;;;;;;27.65;14.30;;;;;;;2.61;99.76;100857.28;5026339;28;20061;-73
2022/11/19 04:29:06;;;;;;;28.60;14.65;;;;;;;2.57;99.78;100858.34;5027788;28;20047;-73
2022/11/19 04:31:32;;;;;;;32.45;14.48;;;;;;;2.56;99.08;100865.50;5029611;28;20035;-72
2022/11/19 04:33:57;;;;;;;30.27;14.15;;;;;;;2.54;99.27;100860.22;5046684;28;20041;-73
2022/11/19 04:36:22;;;;;;;33.50;14.70;;;;;;;2.59;99.78;100867.22;5040184;28;20037;-75
2022/11/19 04:38:48;;;;;;;32.50;14.50;;;;;;;2.55;99.45;100864.63;5027145;28;20048;-72
2022/11/19 04:41:13;;;;;;;34.17;15.27;;;;;;;2.53;99.53;100868.34;5009629;28;20116;-72
2022/11/19 04:43:38;;;;;;;31.33;15.50;;;;;;;2.54;99.16;100870.09;5026291;28;20147;-72
2022/11/19 04:46:04;;;;;;;33.90;15.95;;;;;;;2.54;99.56;100875.44;5026387;28;20083;-74
2022/11/19 04:48:29;;;;;;;28.65;14.75;;;;;;;2.52;99.10;100869.28;5026956;28;20021;-72
2022/11/19 04:50:55;;;;;;;29.35;14.27;;;;;;;2.52;99.29;100869.28;5028005;28;20048;-72
2022/11/19 04:53:20;;;;;;;29.52;15.10;;;;;;;2.49;99.26;100878.31;5026302;28;20057;-74
2022/11/19 04:55:45;;;;;;;29.02;14.15;;;;;;;2.51;99.60;100876.44;5026337;28;20395;-72
2022/11/19 04:58:11;;;;;;;37.05;16.42;;;;;;;2.54;100.00;100870.94;5027566;28;20045;-72
2022/11/19 05:00:36;;;;;;;30.70;15.75;;;;;;;2.55;100.00;100880.75;5037104;28;20166;-73
2022/11/19 05:03:02;;;;;;;32.88;13.93;;;;;;;2.58;99.80;100882.47;5028005;28;20034;-73
2022/11/19 05:05:27;;;;;;;32.03;15.50;;;;;;;2.57;99.48;100888.78;5027768;28;20492;-73
2022/11/19 05:07:53;;;;;;;29.17;14.55;;;;;;;2.53;99.29;100893.38;5008944;28;20041;-73
2022/11/19 05:10:18;;;;;;;31.23;15.07;;;;;;;2.52;99.12;100906.88;5028067;28;20041;-73
2022/11/19 05:12:43;;;;;;;30.67;15.70;;;;;;;2.49;99.24;100904.28;5027440;28;20103;-73
2022/11/19 05:15:09;;;;;;;33.53;15.85;;;;;;;2.48;98.74;100903.41;5027196;28;20044;-72
2022/11/19 05:17:35;;;;;;;36.85;15.52;;;;;;;2.46;98.97;100904.41;5027207;28;20485;-73
2022/11/19 05:20:01;;;;;;;37.05;16.45;;;;;;;2.44;98.54;100898.22;5031046;28;20063;-72
2022/11/19 05:22:26;;;;;;;33.05;14.75;;;;;;;2.47;99.27;100903.47;5029897;28;20098;-72
2022/11/19 05:24:51;;;;;;;31.17;15.25;;;;;;;2.45;98.05;100910.72;5030691;28;20106;-74
2022/11/19 05:27:17;;;;;;;33.33;16.95;;;;;;;2.43;97.71;100918.84;5031868;28;20114;-73
2022/11/19 05:29:42;;;;;;;33.40;17.17;;;;;;;2.38;97.52;100919.91;5031639;28;20057;-73
2022/11/19 05:32:08;;;;;;;36.15;15.98;;;;;;;2.37;98.45;100927.09;5041084;28;20503;-73
2022/11/19 05:34:33;;;;;;;35.45;16.90;;;;;;;2.30;97.13;100918.41;5029864;28;20045;-73
2022/11/19 05:36:59;;;;;;;34.97;17.60;;;;;;;2.25;97.66;100916.84;5037159;28;20029;-74
2022/11/19 05:39:24;;;;;;;37.92;16.25;;;;;;;2.22;97.50;100925.84;5035844;28;20029;-72
2022/11/19 05:41:49;;;;;;;34.83;15.38;;;;;;;2.18;98.09;100916.16;5040413;28;20033;-73
2022/11/19 05:44:14;;;;;;;34.95;16.85;;;;;;;2.20;97.95;100918.81;5049527;28;20048;-72
2022/11/19 05:46:40;;;;;;;40.10;17.50;;;;;;;2.24;98.47;100910.59;5031334;28;20489;-72
2022/11/19 05:49:05;;;;;;;34.78;16.40;;;;;;;2.26;98.52;100923.94;5013380;28;20095;-73
2022/11/19 05:51:30;;;;;;;36.75;17.48;;;;;;;2.29;98.02;100931.91;5029333;28;20037;-72
2022/11/19 05:53:56;;;;;;;38.20;17.20;;;;;;;2.24;97.97;100920.47;5013418;28;20042;-73
2022/11/19 05:56:21;;;;;;;30.70;16.17;;;;;;;2.27;98.09;100939.09;5013242;28;20052;-73
2022/11/19 05:58:46;;;;;;;36.85;17.10;;;;;;;2.20;96.71;100938.47;5030471;28;20044;-72
2022/11/19 06:01:13;;;;;;;35.65;16.85;;;;;;;2.18;96.31;100939.44;5030304;28;20602;-73
2022/11/19 06:03:39;;;;;;;38.88;17.65;;;;;;;2.14;96.54;100948.53;5031150;28;20021;-72
2022/11/19 06:06:05;;;;;;;33.78;17.55;;;;;;;2.09;96.66;100945.16;5029181;28;20496;-73
2022/11/19 06:08:30;;;;;;;40.92;19.40;;;;;;;2.10;96.65;100941.53;5030418;28;20120;-73
2022/11/19 06:10:55;;;;;;;36.80;18.55;;;;;;;2.07;96.79;100947.88;5029198;28;20120;-72
2022/11/19 06:13:21;;;;;;;36.85;17.90;;;;;;;2.06;96.87;100954.19;5028087;28;20123;-73
2022/11/19 06:15:46;;;;;;;37.90;18.50;;;;;;;2.09;96.57;100966.59;5023876;28;20128;-73
2022/11/19 06:18:11;;;;;;;32.72;15.40;;;;;;;2.06;96.69;100974.78;5027559;28;20322;-73
2022/11/19 06:20:37;;;;;;;36.38;17.73;;;;;;;2.04;95.61;100972.13;5029169;28;20037;-72
2022/11/19 06:23:02;;;;;;;39.60;19.25;;;;;;;1.96;96.30;100974.25;5029016;28;20590;-72
2022/11/19 06:25:27;;;;;;;40.58;19.55;;;;;;;1.93;96.50;100983.25;5049085;28;20561;-72
2022/11/19 06:27:53;;;;;;;40.60;19.88;;;;;;;1.88;95.82;100976.31;5030687;28;20044;-74
2022/11/19 06:30:18;;;;;;;38.45;18.23;;;;;;;1.86;96.62;100978.16;5033357;28;20037;-74
2022/11/19 06:32:44;;;;;;;35.58;17.98;;;;;;;1.83;96.45;100987.19;5028072;28;20491;-73
2022/11/19 06:35:09;;;;;;;38.10;18.52;;;;;;;1.82;95.94;100990.81;5027669;28;20134;-72
2022/11/19 06:37:35;;;;;;;45.28;20.98;;;;;;;1.76;96.58;100986.50;5031935;28;20116;-72
2022/11/19 06:40:01;;;;;;;38.13;19.10;;;;;;;1.81;96.63;101004.25;5029737;28;20129;-74
2022/11/19 06:42:35;;;;;;;41.55;19.85;;;;;;;1.76;95.80;100991.00;5028845;28;20026;-72
2022/11/19 06:45:02;;;;;;;43.30;19.73;;;;;;;1.76;96.59;100989.19;5028461;28;20044;-72
2022/11/19 06:47:30;;;;;;;43.53;20.35;;;;;;;1.76;96.46;100996.34;5027639;28;20507;-75
2022/11/19 06:49:55;;;;;;;40.20;20.67;;;;;;;1.74;96.39;101001.78;5010611;28;20503;-73
2022/11/19 06:52:21;;;;;;;44.88;19.63;;;;;;;1.70;97.44;100992.09;5027019;28;20064;-73
2022/11/19 06:54:46;;;;;;;40.28;19.33;;;;;;;1.72;96.89;100997.38;5043065;28;20048;-72
2022/11/19 06:57:11;;;;;;;45.65;19.73;;;;;;;1.70;96.55;100994.75;5047282;28;20049;-74
2022/11/19 06:59:37;;;;;;;41.45;20.27;;;;;;;1.69;95.99;101005.56;5039434;28;20025;-74
2022/11/19 07:02:03;;;;;;;39.28;18.80;;;;;;;1.66;96.44;101006.50;5027445;28;20025;-73
2022/11/19 07:04:29;;;;;;;45.33;21.45;;;;;;;1.65;96.56;101009.25;5027328;28;20025;-73
2022/11/19 07:06:54;;;;;;;41.08;18.88;;;;;;;1.66;96.65;101019.06;5027051;28;20452;-73
2022/11/19 07:09:19;;;;;;;45.08;19.98;;;;;;;1.65;96.22;101012.81;5011700;28;20400;-73
2022/11/19 07:11:45;;;;;;;47.63;19.05;;;;;;;1.68;96.06;101023.44;4975124;28;1038040;-73
2022/11/19 07:14:10;;;;;;;46.90;20.27;;;;;;;1.67;96.32;101026.16;5029286;28;20029;-73
2022/11/19 07:16:35;;;;;;;39.58;18.45;;;;;;;1.69;97.19;101029.69;5028302;28;20041;-73
2022/11/19 07:19:06;;;;;;;48.17;21.13;;;;;;;1.71;96.78;101034.06;5029478;28;20473;-73
2022/11/19 07:21:32;;;;;;;39.72;18.30;;;;;;;1.70;95.93;101039.47;5027641;28;20606;-73
2022/11/19 07:23:58;;;;;;;41.03;18.92;;;;;;;1.67;95.70;101031.53;5028384;28;20064;-72
2022/11/19 07:26:24;;;;;;;42.35;19.70;;;;;;;1.64;96.12;101034.31;5028812;28;20083;-74
2022/11/19 07:28:51;;;;;;;45.35;20.05;;;;;;;1.64;95.72;101037.00;5028333;28;20473;-73
2022/11/19 07:31:17;;;;;;;41.33;20.13;;;;;;;1.64;95.19;101039.69;5029117;28;20033;-73
2022/11/19 07:33:42;;;;;;;44.45;20.58;;;;;;;1.64;95.47;101045.94;5029291;28;20390;-73
2022/11/19 07:36:09;;;;;;;46.25;20.13;;;;;;;1.65;96.21;101046.81;5027802;28;20088;-74
2022/11/19 07:38:36;;;;;;;43.50;18.73;;;;;;;1.65;95.80;101047.69;5027457;28;20056;-73
2022/11/19 07:41:01;;;;;;;47.25;19.15;;;;;;;1.67;95.15;101052.97;5027858;28;20092;-72
2022/11/19 07:43:27;;;;;;;43.72;20.73;;;;;;;1.69;94.74;101057.38;5028290;28;20029;-72
2022/11/19 07:45:53;;;;;;;45.67;19.85;;;;;;;1.66;94.91;101059.28;5027836;28;20030;-74
2022/11/19 07:48:18;;;;;;;42.28;19.83;;;;;;;1.66;94.95;101062.81;5011989;28;20099;-72
2022/11/19 07:50:49;;;;;;;41.03;17.35;;;;;;;1.65;94.56;101065.56;5029076;28;20041;-72
2022/11/19 07:53:14;;;;;;;46.80;20.20;;;;;;;1.64;94.49;101075.41;5035014;28;20508;-72
2022/11/19 07:55:40;;;;;;;45.65;18.95;;;;;;;1.62;95.12;101066.53;5028628;28;20030;-73
2022/11/19 07:58:05;;;;;;;43.88;20.00;;;;;;;1.64;95.38;101071.88;5027067;28;20042;-73
2022/11/19 08:00:30;;;;;;;44.17;19.70;;;;;;;1.66;95.44;101067.31;5019715;28;20043;-73
2022/11/19 08:02:56;;;;;;;46.58;19.38;;;;;;;1.63;94.89;101062.03;5047008;28;20047;-73
2022/11/19 08:05:21;;;;;;;50.75;20.35;;;;;;;1.70;95.28;101068.97;5047701;28;20503;-72
2022/11/19 08:07:46;;;;;;;44.30;18.92;;;;;;;1.71;95.61;101068.91;5046258;28;20579;-73
2022/11/19 08:10:12;;;;;;;47.45;19.70;;;;;;;1.70;95.32;101067.16;5043243;28;20041;-72
2022/11/19 08:12:37;;;;;;;47.78;21.20;;;;;;;1.73;94.60;101080.50;5026934;28;20128;-73
2022/11/19 08:15:03;;;;;;;40.80;19.58;;;;;;;1.72;94.69;101085.88;5035784;28;20387;-72
2022/11/19 08:20:29;;;;;;;46.22;19.85;;;;;;;1.68;94.59;101085.13;5008705;28;20045;-73
2022/11/19 08:22:54;;;;;;;46.45;18.45;;;;;;;1.65;93.87;101082.53;5027077;28;20045;-73
2022/11/19 08:25:20;;;;;;;43.63;20.30;;;;;;;1.68;93.80;101086.91;5027311;28;20048;-73
2022/11/19 08:27:45;;;;;;;46.53;19.08;;;;;;;1.70;93.68;101091.31;5027861;28;20056;-73
2022/11/19 08:30:12;;;;;;;41.17;19.80;;;;;;;1.70;92.53;101095.78;5028310;28;20026;-73
2022/11/19 08:32:37;;;;;;;41.85;19.70;;;;;;;1.68;93.62;101101.22;5026717;28;20756;-73
2022/11/19 08:35:03;;;;;;;47.38;19.27;;;;;;;1.70;94.24;101098.47;5027930;28;20040;-73
2022/11/19 08:37:28;;;;;;;44.08;20.33;;;;;;;1.68;93.23;101103.91;5026240;28;20476;-72
2022/11/19 08:39:53;;;;;;;49.55;20.13;;;;;;;1.69;92.54;101107.47;5026187;28;20034;-72
2022/11/19 08:45:03;;;;;;;43.00;17.73;;;;;;;1.69;92.86;101105.66;5035609;28;20029;-73
2022/11/19 08:47:28;;;;;;;45.13;21.00;;;;;;;1.68;93.34;101098.53;5009739;28;20102;-72
2022/11/19 08:49:54;;;;;;;48.00;21.90;;;;;;;1.71;93.21;101102.91;5026625;28;20045;-73
2022/11/19 08:52:19;;;;;;;43.22;19.00;;;;;;;1.74;93.47;101109.06;5041386;28;20037;-72
2022/11/19 08:54:44;;;;;;;42.80;19.20;;;;;;;1.74;92.88;101108.19;5030770;28;20158;-74
2022/11/19 08:57:10;;;;;;;42.78;18.83;;;;;;;1.73;92.55;101106.44;5027739;28;20025;-73
2022/11/19 08:59:35;;;;;;;41.75;18.58;;;;;;;1.74;92.87;101108.19;5025267;28;20042;-72
2022/11/19 09:02:00;;;;;;;41.88;18.40;;;;;;;1.72;92.95;101108.22;5026095;28;20042;-73
2022/11/19 09:04:26;;;;;;;47.67;20.20;;;;;;;1.71;92.22;101116.31;5027524;28;20098;-72
2022/11/19 09:06:51;;;;;;;39.83;18.50;;;;;;;1.71;91.45;101116.31;5010135;28;20032;-73
2022/11/19 09:09:16;;;;;;;41.08;17.92;;;;;;;1.69;92.29;101113.69;5037303;28;20041;-72
2022/11/19 09:11:42;;;;;;;40.30;17.48;;;;;;;1.69;92.44;101115.50;5047133;28;20340;-73
2022/11/19 09:14:07;;;;;;;46.00;19.30;;;;;;;1.68;92.07;101117.31;5029524;28;20056;-72
2022/11/19 09:16:33;;;;;;;45.30;18.25;;;;;;;1.71;92.07;101114.50;5028555;28;20037;-73
2022/11/19 09:19:01;;;;;;;37.30;17.75;;;;;;;1.72;93.06;101108.22;5009696;28;20029;-72
2022/11/19 09:21:26;;;;;;;45.15;20.17;;;;;;;1.76;92.69;101119.72;5026752;28;20041;-72
2022/11/19 09:23:52;;;;;;;42.85;18.08;;;;;;;1.76;91.86;101125.97;5027917;28;20400;-73
2022/11/19 09:26:18;;;;;;;44.85;18.88;;;;;;;1.79;92.49;101133.94;5027116;28;20041;-72
2022/11/19 09:28:44;;;;;;;39.08;17.50;;;;;;;1.85;93.26;101140.03;5025182;28;20030;-73
2022/11/19 09:31:18;;;;;;;42.45;19.02;;;;;;;1.91;92.74;101135.34;5032485;28;20099;-73
2022/11/19 09:33:49;;;;;;;40.38;18.58;;;;;;;1.92;91.98;101139.78;5047379;28;20040;-73
2022/11/19 09:36:15;;;;;;;45.75;18.85;;;;;;;1.91;91.89;101130.00;5046576;28;20060;-73
2022/11/19 09:38:41;;;;;;;42.28;18.70;;;;;;;1.92;91.83;101142.47;5038313;28;20385;-73
2022/11/19 09:41:34;;;;;;;41.97;17.52;;;;;;;1.92;91.26;101150.53;5025627;28;20086;-72
2022/11/19 09:44:08;;;;;;;36.88;17.05;;;;;;;1.85;90.05;101151.63;5025272;28;20041;-72
2022/11/19 09:46:44;;;;;;;40.25;17.02;;;;;;;1.83;91.24;101163.34;5027399;28;20045;-74
2022/11/19 09:49:16;;;;;;;44.47;18.63;;;;;;;1.82;91.25;101161.56;5045900;28;20036;-72
2022/11/19 09:51:49;;;;;;;38.78;16.30;;;;;;;1.81;89.74;101167.88;5046519;28;20029;-72
2022/11/19 09:54:17;;;;;;;45.53;17.50;;;;;;;1.83;90.51;101174.94;5033659;28;20060;-72
2022/11/19 09:56:45;;;;;;;47.00;18.63;;;;;;;1.85;89.80;101172.22;5009098;28;20073;-72
2022/11/19 09:59:36;;;;;;;46.95;18.20;;;;;;;1.91;90.99;101172.91;5033008;28;20032;-73
2022/11/19 10:02:14;;;;;;;35.78;16.70;;;;;;;1.93;90.95;101176.41;5026746;28;20033;-74
2022/11/19 10:04:40;;;;;;;38.58;18.13;;;;;;;1.98;91.27;101166.41;5042633;28;20041;-74
2022/11/19 10:07:20;;;;;;;44.42;18.95;;;;;;;1.99;91.06;101172.66;5048727;28;20479;-74
2022/11/19 10:10:01;;;;;;;43.35;19.00;;;;;;;2.01;91.58;101171.69;5034194;28;20515;-72
2022/11/19 10:12:39;;;;;;;40.60;18.83;;;;;;;1.99;90.01;101181.56;5028858;28;20208;-73
2022/11/19 10:15:25;;;;;;;39.33;18.05;;;;;;;1.95;90.93;101182.59;5029979;28;20535;-73
2022/11/19 10:18:14;;;;;;;43.42;17.98;;;;;;;1.90;90.32;101178.31;5029073;28;20033;-73
2022/11/19 10:21:04;;;;;;;41.63;18.63;;;;;;;1.86;91.75;101180.19;5028990;28;20041;-72
2022/11/19 10:24:08;;;;;;;39.17;16.13;;;;;;;1.84;90.62;101181.19;5029758;28;20046;-72
2022/11/19 10:26:38;;;;;;;44.30;17.77;;;;;;;1.86;91.14;101184.69;5028969;28;20069;-73
2022/11/19 10:29:15;;;;;;;37.38;15.98;;;;;;;1.83;89.42;101180.31;5028268;28;20118;-72
2022/11/19 10:31:46;;;;;;;43.55;17.80;;;;;;;1.81;90.51;101200.94;5028832;28;20030;-73
2022/11/19 10:34:25;;;;;;;39.65;17.42;;;;;;;1.82;89.81;101193.75;5028756;28;20124;-72
2022/11/19 10:36:57;;;;;;;41.70;16.90;;;;;;;1.82;90.06;101197.34;5030085;28;20045;-73
2022/11/19 10:39:31;;;;;;;47.92;20.38;;;;;;;1.81;90.35;101198.25;5018633;28;20050;-74
2022/11/19 10:42:08;;;;;;;41.13;16.88;;;;;;;1.82;89.97;101201.81;5028519;28;20057;-73
2022/11/19 10:44:40;;;;;;;43.78;17.45;;;;;;;1.77;89.49;101207.31;5011575;28;20048;-73
2022/11/19 10:47:33;;;;;;;41.08;19.02;;;;;;;1.64;89.26;101197.91;5031299;28;20439;-73
2022/11/19 10:49:58;;;;;;;37.17;17.05;;;;;;;1.56;90.23;101187.38;5029766;28;20048;-72
2022/11/19 10:52:28;;;;;;;38.97;16.52;;;;;;;1.54;90.47;101189.25;5028092;28;20021;-73
2022/11/19 10:55:03;;;;;;;37.10;15.85;;;;;;;1.59;89.99;101199.84;5044606;28;20056;-72
2022/11/19 10:57:31;;;;;;;35.92;17.02;;;;;;;1.61;89.73;101197.97;5047997;28;20140;-73
2022/11/19 10:59:58;;;;;;;37.83;16.38;;;;;;;1.61;88.93;101196.16;5020932;28;20025;-72
2022/11/19 11:02:39;;;;;;;39.40;16.90;;;;;;;1.63;89.71;101202.38;5029113;28;20029;-73
2022/11/19 11:05:14;;;;;;;40.97;17.52;;;;;;;1.59;89.70;101208.75;5029324;28;20117;-72
2022/11/19 11:07:44;;;;;;;40.22;16.38;;;;;;;1.53;90.25;101193.72;5027612;28;20088;-73
2022/11/19 11:10:28;;;;;;;34.05;15.73;;;;;;;1.62;89.39;101194.38;5027790;28;20025;-73
2022/11/19 11:15:49;;;;;;;33.10;15.00;;;;;;;1.64;88.41;101188.03;5028621;28;20037;-72
2022/11/19 11:18:16;;;;;;;35.30;14.52;;;;;;;1.70;89.51;101192.34;5028727;28;20116;-73
2022/11/19 11:20:48;;;;;;;34.30;15.07;;;;;;;1.66;88.62;101193.34;5028934;28;20040;-72
2022/11/19 11:23:16;;;;;;;30.58;15.15;;;;;;;1.68;89.12;101197.75;5028801;28;20091;-73
2022/11/19 11:26:05;;;;;;;30.08;15.20;;;;;;;1.68;87.85;101192.41;5029095;28;20121;-72
2022/11/19 11:28:30;;;;;;;36.58;15.05;;;;;;;1.61;86.92;101198.84;5026925;28;20037;-73
2022/11/19 11:31:05;;;;;;;32.53;15.43;;;;;;;1.59;88.59;101202.53;5034372;28;20479;-73
2022/11/19 11:33:33;;;;;;;30.00;14.35;;;;;;;1.61;88.29;101182.75;5027472;28;20033;-72
2022/11/19 11:36:07;;;;;;;30.80;14.90;;;;;;;1.66;88.63;101179.94;5037819;28;20128;-73
2022/11/19 11:38:41;;;;;;;27.73;14.02;;;;;;;1.73;89.58;101192.25;5042401;28;20082;-73
2022/11/19 11:41:09;;;;;;;28.02;13.35;;;;;;;1.66;87.90;101179.94;5028431;28;20377;-71
2022/11/19 11:43:39;;;;;;;28.73;13.60;;;;;;;1.71;87.08;101184.25;5017003;28;20100;-73